Time;durP1;ratioP1;P1;durP2;ratioP2;P2;SDS_P1;SDS_P2;PMS_P1;PMS_P2;Temp;Humidity;BMP_temperature;BMP_pressure;BME280_temperature;BME280_humidity;BME280_pressure;Samples;Min_cycle;Max_cycle;Signal;HPM_P1;HPM_P2
2022/08/28 00:00:19;;;;;;;23.63;10.55;;;20.80;99.90;;;;;;5065416;28;20058;-72
2022/08/28 00:02:46;;;;;;;16.38;11.65;;;20.80;99.90;;;;;;5072261;28;20042;-72
2022/08/28 00:05:15;;;;;;;14.15;9.63;;;20.80;99.90;;;;;;5070555;28;20040;-72
2022/08/28 00:07:40;;;;;;;14.90;9.90;;;20.80;99.90;;;;;;5073561;28;20464;-72
2022/08/28 00:10:08;;;;;;;14.98;11.05;;;20.80;99.90;;;;;;5070783;28;20032;-72
2022/08/28 00:12:35;;;;;;;17.17;11.18;;;20.80;99.90;;;;;;5067235;28;20024;-72
2022/08/28 00:15:06;;;;;;;14.88;9.82;;;20.80;99.90;;;;;;5065052;28;20617;-72
2022/08/28 00:17:32;;;;;;;14.00;10.55;;;20.70;99.90;;;;;;5063288;28;20085;-72
2022/08/28 00:19:58;;;;;;;16.77;10.35;;;20.80;99.90;;;;;;5065708;28;20130;-72
2022/08/28 00:22:23;;;;;;;17.23;10.68;;;20.80;99.90;;;;;;5072522;28;20115;-72
2022/08/28 00:24:49;;;;;;;13.65;10.13;;;20.80;99.90;;;;;;5070797;28;20028;-72
2022/08/28 00:29:59;;;;;;;12.50;9.13;;;20.80;99.90;;;;;;5068488;28;20072;-72
2022/08/28 00:32:25;;;;;;;11.57;9.20;;;20.80;99.90;;;;;;5066441;28;20039;-72
2022/08/28 00:34:52;;;;;;;12.75;8.77;;;20.80;99.90;;;;;;5067591;28;20075;-72
2022/08/28 00:37:18;;;;;;;14.55;9.57;;;20.80;99.80;;;;;;5062976;28;20051;-72
2022/08/28 00:39:43;;;;;;;11.50;8.07;;;20.80;99.70;;;;;;5071306;28;20479;-72
2022/08/28 00:42:09;;;;;;;15.13;9.15;;;20.80;99.60;;;;;;5067911;28;20043;-72
2022/08/28 00:44:35;;;;;;;11.18;8.23;;;20.80;99.60;;;;;;5070488;28;20036;-72
2022/08/28 00:47:01;;;;;;;11.55;7.28;;;20.80;99.30;;;;;;5068193;28;20055;-72
2022/08/28 00:49:34;;;;;;;10.93;6.57;;;20.80;99.20;;;;;;5068069;28;20101;-72
2022/08/28 00:52:04;;;;;;;10.57;6.30;;;20.70;98.90;;;;;;5064418;28;20051;-72
2022/08/28 00:54:34;;;;;;;11.90;6.13;;;20.70;98.80;;;;;;5062639;28;20115;-72
2022/08/28 00:57:05;;;;;;;12.57;5.55;;;20.60;98.70;;;;;;5062476;28;20060;-72
2022/08/28 00:59:32;;;;;;;9.38;5.28;;;20.50;98.40;;;;;;5071891;28;20048;-72
2022/08/28 01:01:59;;;;;;;11.57;5.07;;;20.50;98.30;;;;;;5070833;28;20111;-72
2022/08/28 01:04:27;;;;;;;10.82;4.47;;;20.40;98.00;;;;;;5071695;28;20024;-72
2022/08/28 01:06:55;;;;;;;8.98;3.95;;;20.40;98.10;;;;;;5066429;28;20579;-72
2022/08/28 01:09:23;;;;;;;9.32;4.57;;;20.30;97.70;;;;;;5066013;28;20028;-73
2022/08/28 01:11:53;;;;;;;12.13;4.43;;;20.20;97.70;;;;;;5063316;28;20039;-72
2022/08/28 01:14:22;;;;;;;8.68;3.67;;;20.20;97.30;;;;;;5063212;28;20524;-72
2022/08/28 01:16:54;;;;;;;5.60;3.42;;;20.10;96.90;;;;;;5067735;28;20024;-72
2022/08/28 01:19:30;;;;;;;8.27;3.92;;;20.00;96.90;;;;;;5071989;28;20040;-72
2022/08/28 01:22:07;;;;;;;10.00;4.05;;;20.00;96.90;;;;;;5067060;28;20059;-72
2022/08/28 01:24:35;;;;;;;14.07;3.83;;;19.90;96.80;;;;;;5066093;28;20595;-72
2022/08/28 01:27:01;;;;;;;7.57;3.92;;;19.80;96.40;;;;;;5066908;28;20047;-72
2022/08/28 01:29:29;;;;;;;8.65;3.55;;;19.80;96.40;;;;;;5065561;28;20488;-72
2022/08/28 01:31:55;;;;;;;6.85;3.08;;;19.70;96.20;;;;;;5069041;28;20492;-72
2022/08/28 01:34:21;;;;;;;10.70;3.75;;;19.60;96.30;;;;;;5063296;28;20031;-72
2022/08/28 01:36:47;;;;;;;8.73;3.30;;;19.50;96.30;;;;;;5068913;28;20098;-72
2022/08/28 01:39:19;;;;;;;14.90;3.30;;;19.50;96.40;;;;;;5069111;28;20106;-72
2022/08/28 01:41:48;;;;;;;7.50;2.47;;;19.40;96.10;;;;;;5067203;28;20477;-72
2022/08/28 01:44:15;;;;;;;7.43;2.95;;;19.40;96.20;;;;;;5066866;28;20710;-72
2022/08/28 01:46:41;;;;;;;9.43;2.72;;;19.30;96.10;;;;;;5071445;28;20040;-72
2022/08/28 01:49:08;;;;;;;13.82;3.15;;;19.30;96.40;;;;;;5063480;28;20064;-72
2022/08/28 01:51:35;;;;;;;18.75;3.88;;;19.30;96.00;;;;;;5074075;28;20959;-72
2022/08/28 01:54:01;;;;;;;10.77;2.70;;;19.20;96.20;;;;;;5065178;28;20030;-72
2022/08/28 01:56:26;;;;;;;8.45;2.63;;;19.10;96.30;;;;;;5073500;28;20763;-72
2022/08/28 01:58:52;;;;;;;10.00;3.03;;;19.10;96.30;;;;;;5071702;28;20037;-72
2022/08/28 02:01:21;;;;;;;9.18;3.13;;;19.00;96.40;;;;;;5072206;28;20044;-72
2022/08/28 02:03:48;;;;;;;7.53;2.80;;;19.00;96.30;;;;;;5068778;28;20035;-72
2022/08/28 02:06:15;;;;;;;11.13;2.95;;;19.00;96.30;;;;;;5069242;28;20029;-72
2022/08/28 02:08:41;;;;;;;8.25;3.33;;;18.90;96.30;;;;;;5065108;28;20032;-72
2022/08/28 02:11:07;;;;;;;8.10;3.78;;;18.90;96.50;;;;;;5065759;28;20037;-72
2022/08/28 02:13:37;;;;;;;5.72;2.90;;;18.90;96.60;;;;;;5072706;28;20047;-72
2022/08/28 02:16:06;;;;;;;6.80;2.67;;;18.80;96.70;;;;;;5076246;28;20028;-72
2022/08/28 02:18:31;;;;;;;11.60;3.45;;;18.80;96.90;;;;;;5069956;28;20134;-72
2022/08/28 02:20:58;;;;;;;10.88;3.50;;;18.80;97.10;;;;;;5069509;28;20829;-72
2022/08/28 02:23:23;;;;;;;10.13;3.15;;;18.80;97.20;;;;;;5069397;28;20492;-72
2022/08/28 02:25:49;;;;;;;10.38;2.83;;;18.80;97.40;;;;;;5067270;28;20041;-72
2022/08/28 02:28:15;;;;;;;9.05;3.05;;;18.80;97.30;;;;;;5070011;28;20040;-70
2022/08/28 02:30:41;;;;;;;10.68;2.90;;;18.80;97.20;;;;;;5065952;28;20052;-73
2022/08/28 02:33:07;;;;;;;9.98;2.33;;;18.80;97.30;;;;;;5075004;28;20029;-72
2022/08/28 02:35:33;;;;;;;7.70;2.90;;;18.80;97.10;;;;;;5074464;28;20739;-71
2022/08/28 02:38:00;;;;;;;12.52;3.00;;;18.80;97.20;;;;;;5069866;28;20492;-72
2022/08/28 02:40:26;;;;;;;10.75;3.50;;;18.90;97.20;;;;;;5071517;28;20035;-72
2022/08/28 02:42:52;;;;;;;7.18;2.72;;;18.80;97.10;;;;;;5071904;28;20815;-70
2022/08/28 02:45:19;;;;;;;13.30;3.38;;;18.80;97.00;;;;;;5068889;28;20028;-70
2022/08/28 02:47:46;;;;;;;9.73;2.90;;;18.90;97.10;;;;;;5065190;28;20790;-70
2022/08/28 02:50:15;;;;;;;8.20;3.20;;;18.80;96.80;;;;;;5064656;28;20041;-71
2022/08/28 02:52:41;;;;;;;7.65;2.65;;;18.80;96.90;;;;;;5073514;28;20078;-71
2022/08/28 02:55:09;;;;;;;8.05;2.80;;;18.80;97.00;;;;;;5075733;28;20052;-73
2022/08/28 02:57:35;;;;;;;7.97;3.33;;;18.80;96.80;;;;;;5063837;28;20464;-70
2022/08/28 03:00:03;;;;;;;4.85;2.40;;;18.80;96.80;;;;;;5070473;28;20123;-72
2022/08/28 03:02:30;;;;;;;10.65;3.47;;;18.80;96.90;;;;;;5083754;28;20031;-73
2022/08/28 03:04:56;;;;;;;8.93;3.28;;;18.90;96.90;;;;;;5071183;28;20039;-72
2022/08/28 03:07:22;;;;;;;10.13;3.20;;;18.90;97.00;;;;;;5074223;28;20032;-73
2022/08/28 03:09:49;;;;;;;9.55;3.08;;;18.80;96.90;;;;;;5077538;28;20059;-72
2022/08/28 03:12:15;;;;;;;13.38;3.42;;;18.80;96.90;;;;;;5075718;28;20164;-72
2022/08/28 03:14:41;;;;;;;10.32;2.92;;;18.80;96.70;;;;;;5073551;28;20035;-72
2022/08/28 03:17:09;;;;;;;11.18;2.88;;;18.80;96.70;;;;;;5076791;28;20059;-72
2022/08/28 03:19:34;;;;;;;8.63;2.83;;;18.80;96.70;;;;;;5077446;28;20035;-72
2022/08/28 03:22:00;;;;;;;8.82;2.25;;;18.80;96.70;;;;;;5076765;28;20029;-72
2022/08/28 03:24:26;;;;;;;8.23;2.85;;;18.80;96.70;;;;;;5066375;28;20584;-72
2022/08/28 03:26:51;;;;;;;9.70;2.45;;;18.80;96.80;;;;;;5071601;28;20539;-71
2022/08/28 03:29:17;;;;;;;12.23;3.28;;;18.80;96.60;;;;;;5068212;28;20073;-73
2022/08/28 03:31:43;;;;;;;13.68;3.15;;;18.80;96.60;;;;;;5079567;28;20089;-73
2022/08/28 03:34:09;;;;;;;8.55;2.60;;;18.80;96.50;;;;;;5070088;28;20040;-72
2022/08/28 03:36:34;;;;;;;7.68;3.20;;;18.80;96.30;;;;;;5069322;28;20032;-72
2022/08/28 03:39:03;;;;;;;7.45;3.08;;;18.70;96.30;;;;;;5067769;28;20033;-72
2022/08/28 03:41:30;;;;;;;10.48;2.90;;;18.70;96.40;;;;;;5072129;28;20028;-73
2022/08/28 03:43:58;;;;;;;9.25;2.83;;;18.70;96.40;;;;;;5065018;28;20342;-72
2022/08/28 03:46:25;;;;;;;11.07;2.95;;;18.70;96.40;;;;;;5064096;28;20037;-72
2022/08/28 03:48:51;;;;;;;11.32;3.00;;;18.60;96.40;;;;;;5074369;28;20072;-73
2022/08/28 03:51:21;;;;;;;18.17;3.55;;;18.60;96.40;;;;;;5074814;28;20039;-73
2022/08/28 03:53:48;;;;;;;10.32;3.08;;;18.60;96.60;;;;;;5072602;28;20119;-71
2022/08/28 03:56:20;;;;;;;4.75;2.70;;;18.60;96.40;;;;;;5071820;28;20036;-71
2022/08/28 03:58:47;;;;;;;9.27;3.15;;;18.50;96.40;;;;;;5067208;28;20029;-71
2022/08/28 04:01:13;;;;;;;6.35;2.63;;;18.50;96.30;;;;;;5069621;28;20132;-71
2022/08/28 04:03:39;;;;;;;7.00;3.05;;;18.50;96.50;;;;;;5064825;28;20136;-72
2022/08/28 04:06:05;;;;;;;6.22;2.55;;;18.40;96.40;;;;;;5067967;28;20035;-71
2022/08/28 04:08:30;;;;;;;13.23;3.17;;;18.40;96.40;;;;;;5075246;28;20023;-71
2022/08/28 04:10:59;;;;;;;7.32;3.08;;;18.30;96.40;;;;;;5070443;28;20489;-71
2022/08/28 04:13:26;;;;;;;8.43;2.88;;;18.30;96.40;;;;;;5071011;28;21020;-71
2022/08/28 04:16:02;;;;;;;10.55;2.90;;;18.30;96.50;;;;;;5069406;28;20044;-71
2022/08/28 04:18:29;;;;;;;7.43;2.80;;;18.20;96.60;;;;;;5069746;28;20059;-71
2022/08/28 04:21:07;;;;;;;17.20;4.03;;;18.10;96.60;;;;;;5064869;28;20036;-71
2022/08/28 04:23:35;;;;;;;8.40;2.67;;;18.10;96.70;;;;;;5070927;28;20143;-71
2022/08/28 04:26:04;;;;;;;14.25;3.40;;;18.10;96.70;;;;;;5079129;28;20042;-71
2022/08/28 04:28:31;;;;;;;13.00;3.13;;;18.00;96.80;;;;;;5073580;28;20023;-71
2022/08/28 04:30:57;;;;;;;9.55;2.78;;;18.00;96.90;;;;;;5073032;28;20120;-71
2022/08/28 04:33:25;;;;;;;8.95;3.13;;;18.00;96.90;;;;;;5069366;28;20110;-71
2022/08/28 04:35:51;;;;;;;11.43;3.10;;;17.90;97.00;;;;;;5066303;28;20040;-71
2022/08/28 04:38:17;;;;;;;11.80;2.90;;;17.90;97.00;;;;;;5067655;28;20035;-71
2022/08/28 04:40:43;;;;;;;7.80;3.03;;;17.90;97.40;;;;;;5064273;28;20047;-70
2022/08/28 04:43:09;;;;;;;9.85;2.83;;;17.80;97.20;;;;;;5063236;28;20032;-71
2022/08/28 04:45:40;;;;;;;7.85;2.83;;;17.80;97.20;;;;;;5072830;28;20032;-71
2022/08/28 04:48:06;;;;;;;11.35;3.38;;;17.80;97.20;;;;;;5068762;28;20033;-71
2022/08/28 04:50:32;;;;;;;10.77;3.70;;;17.80;97.10;;;;;;5076370;28;20075;-71
2022/08/28 04:52:58;;;;;;;15.75;3.92;;;17.80;97.10;;;;;;5071064;28;20127;-71
2022/08/28 04:55:24;;;;;;;13.32;3.50;;;17.70;97.00;;;;;;5074119;28;20114;-71
2022/08/28 04:57:50;;;;;;;11.95;3.25;;;17.70;97.10;;;;;;5067962;28;20059;-70
2022/08/28 05:00:16;;;;;;;10.75;3.25;;;17.70;97.10;;;;;;5063709;28;20044;-71
2022/08/28 05:02:42;;;;;;;13.30;3.67;;;17.70;97.30;;;;;;5065867;28;20036;-71
2022/08/28 05:05:08;;;;;;;7.45;3.35;;;17.60;97.30;;;;;;5069756;28;20135;-71
2022/08/28 05:07:34;;;;;;;13.95;3.88;;;17.60;97.40;;;;;;5072344;28;20423;-71
2022/08/28 05:10:00;;;;;;;13.23;3.08;;;17.60;97.20;;;;;;5071507;28;20037;-71
2022/08/28 05:12:25;;;;;;;14.30;3.63;;;17.60;97.10;;;;;;5067394;28;20024;-71
2022/08/28 05:14:51;;;;;;;10.68;4.07;;;17.60;97.10;;;;;;5065125;28;20028;-71
2022/08/28 05:17:17;;;;;;;10.65;3.45;;;17.60;97.20;;;;;;5064281;28;20710;-71
2022/08/28 05:19:43;;;;;;;14.18;3.65;;;17.60;97.20;;;;;;5062208;28;20055;-71
2022/08/28 05:22:09;;;;;;;7.63;3.17;;;17.60;97.30;;;;;;5065398;28;20543;-71
2022/08/28 05:24:39;;;;;;;17.73;4.13;;;17.60;97.40;;;;;;5076495;28;20040;-70
2022/08/28 05:27:05;;;;;;;12.50;3.72;;;17.70;97.30;;;;;;5068827;28;20040;-70
2022/08/28 05:29:32;;;;;;;11.40;3.50;;;17.60;97.10;;;;;;5071109;28;20093;-70
2022/08/28 05:31:57;;;;;;;11.82;3.92;;;17.70;97.20;;;;;;5071270;28;20040;-70
2022/08/28 05:34:23;;;;;;;12.25;3.80;;;17.60;97.30;;;;;;5066220;28;20040;-70
2022/08/28 05:36:49;;;;;;;12.85;3.88;;;17.70;97.30;;;;;;5064711;28;20512;-71
2022/08/28 05:39:16;;;;;;;16.58;4.43;;;17.70;97.30;;;;;;5068480;28;20081;-71
2022/08/28 05:41:44;;;;;;;17.67;4.65;;;17.80;97.30;;;;;;5069007;28;20111;-72
2022/08/28 05:44:12;;;;;;;14.98;4.15;;;17.90;97.10;;;;;;5069459;28;20082;-71
2022/08/28 05:46:40;;;;;;;8.40;3.78;;;17.90;96.80;;;;;;5068710;28;20028;-71
2022/08/28 05:49:06;;;;;;;13.98;3.75;;;18.00;97.00;;;;;;5065690;28;20112;-71
2022/08/28 05:51:33;;;;;;;14.98;4.25;;;18.00;96.80;;;;;;5067881;28;20020;-72
2022/08/28 05:54:00;;;;;;;9.77;3.33;;;18.10;96.70;;;;;;5066447;28;20437;-71
2022/08/28 05:56:28;;;;;;;13.57;4.28;;;18.10;96.20;;;;;;5067382;28;20036;-71
2022/08/28 05:58:54;;;;;;;12.98;4.07;;;18.10;96.20;;;;;;5064643;28;20036;-71
2022/08/28 06:01:25;;;;;;;11.90;4.60;;;18.10;96.10;;;;;;5070779;28;20037;-71
2022/08/28 06:03:54;;;;;;;11.90;4.05;;;18.10;96.10;;;;;;5076596;28;20086;-71
2022/08/28 06:06:23;;;;;;;9.35;3.72;;;18.10;96.00;;;;;;5068716;28;20384;-71
2022/08/28 06:09:00;;;;;;;14.75;4.82;;;18.20;96.10;;;;;;5065118;28;20021;-72
2022/08/28 06:11:28;;;;;;;16.55;4.25;;;18.20;95.70;;;;;;5071881;28;20032;-71
2022/08/28 06:13:54;;;;;;;7.68;3.50;;;18.20;95.60;;;;;;5068744;28;20624;-71
2022/08/28 06:16:20;;;;;;;11.48;4.00;;;18.20;95.50;;;;;;5061792;28;20036;-71
2022/08/28 06:18:46;;;;;;;17.63;4.70;;;18.30;95.50;;;;;;5068834;28;20031;-71
2022/08/28 06:21:12;;;;;;;9.45;3.85;;;18.30;95.50;;;;;;5073104;28;20025;-71
2022/08/28 06:23:39;;;;;;;14.07;4.38;;;18.30;95.60;;;;;;5076841;28;20480;-71
2022/08/28 06:26:05;;;;;;;14.52;4.13;;;18.30;95.50;;;;;;5070512;28;20020;-71
2022/08/28 06:28:32;;;;;;;13.23;4.18;;;18.40;95.40;;;;;;5065793;28;20028;-71
2022/08/28 06:31:03;;;;;;;8.18;4.00;;;18.40;95.00;;;;;;5065026;28;20174;-71
2022/08/28 06:33:29;;;;;;;14.43;4.63;;;18.40;95.10;;;;;;5063526;28;20047;-71
2022/08/28 06:35:55;;;;;;;14.82;4.50;;;18.40;95.40;;;;;;5066126;28;20473;-71
2022/08/28 06:38:24;;;;;;;14.45;4.30;;;18.50;95.20;;;;;;5069766;28;20020;-71
2022/08/28 06:40:53;;;;;;;16.33;5.00;;;18.50;94.90;;;;;;5068267;28;20028;-71
2022/08/28 06:43:20;;;;;;;11.73;4.18;;;18.50;95.00;;;;;;5070954;28;20041;-71
2022/08/28 06:45:49;;;;;;;15.40;4.43;;;18.50;94.90;;;;;;5068324;28;20072;-72
2022/08/28 06:48:16;;;;;;;13.45;4.68;;;18.50;95.00;;;;;;5068600;28;20035;-72
2022/08/28 06:50:48;;;;;;;11.80;4.40;;;18.50;94.90;;;;;;5065826;28;20417;-71
2022/08/28 06:53:16;;;;;;;11.05;4.50;;;18.50;94.80;;;;;;5072364;28;20181;-71
2022/08/28 06:55:43;;;;;;;11.68;4.32;;;18.50;94.90;;;;;;5067738;28;20087;-71
2022/08/28 06:58:09;;;;;;;11.25;4.63;;;18.50;94.80;;;;;;5070953;28;20149;-71
2022/08/28 07:00:36;;;;;;;17.58;4.57;;;18.50;94.50;;;;;;5072136;28;20055;-71
2022/08/28 07:03:04;;;;;;;9.93;4.45;;;18.60;94.50;;;;;;5070622;28;20056;-71
2022/08/28 07:05:32;;;;;;;20.80;5.30;;;18.60;94.50;;;;;;5070940;28;20089;-72
2022/08/28 07:07:58;;;;;;;17.45;5.65;;;18.60;94.30;;;;;;5066810;28;20115;-71
2022/08/28 07:10:26;;;;;;;12.43;4.57;;;18.60;94.50;;;;;;5064556;28;20552;-71
2022/08/28 07:12:52;;;;;;;13.15;4.38;;;18.60;94.30;;;;;;5063300;28;20548;-71
2022/08/28 07:15:18;;;;;;;14.70;5.13;;;18.60;94.50;;;;;;5068641;28;20072;-71
2022/08/28 07:17:44;;;;;;;8.45;5.03;;;18.60;94.70;;;;;;5076846;28;20086;-71
2022/08/28 07:20:10;;;;;;;10.75;4.43;;;18.60;94.30;;;;;;5070618;28;20488;-71
2022/08/28 07:22:39;;;;;;;16.25;5.43;;;18.70;94.40;;;;;;5070563;28;20038;-71
2022/08/28 07:25:06;;;;;;;12.52;4.65;;;18.70;94.10;;;;;;5072962;28;20957;-71
2022/08/28 07:27:32;;;;;;;10.93;4.60;;;18.70;94.10;;;;;;5080757;28;20024;-71
2022/08/28 07:30:00;;;;;;;14.35;4.53;;;18.80;94.20;;;;;;5078306;28;20064;-71
2022/08/28 07:32:27;;;;;;;13.15;4.43;;;18.80;94.20;;;;;;5070797;28;20027;-71
2022/08/28 07:34:55;;;;;;;11.27;4.45;;;18.90;94.20;;;;;;5075065;28;20836;-71
2022/08/28 07:37:21;;;;;;;9.50;4.35;;;18.90;94.10;;;;;;5076182;28;20028;-71
2022/08/28 07:39:47;;;;;;;16.67;5.20;;;19.00;94.30;;;;;;5084437;28;20650;-71
2022/08/28 07:44:47;;;;;;;10.75;4.10;;;19.10;94.20;;;;;;5079834;28;20215;-72
2022/08/28 07:44:59;;;;;;;13.10;4.75;;;19.10;94.00;;;;;;5079251;28;20508;-71
2022/08/28 07:47:29;;;;;;;15.18;4.80;;;19.20;93.80;;;;;;5071176;28;20032;-71
2022/08/28 07:49:59;;;;;;;13.05;4.50;;;19.30;93.30;;;;;;5072612;28;20093;-71
2022/08/28 07:52:28;;;;;;;12.60;4.43;;;19.30;93.40;;;;;;5065400;28;20033;-72
2022/08/28 07:54:55;;;;;;;12.95;4.35;;;19.30;93.00;;;;;;5070043;28;20048;-71
2022/08/28 07:57:21;;;;;;;10.90;4.40;;;19.30;93.20;;;;;;5075798;28;20024;-71
2022/08/28 07:59:47;;;;;;;12.70;4.70;;;19.30;93.40;;;;;;5073304;28;20036;-72
2022/08/28 08:02:14;;;;;;;10.13;4.55;;;19.40;93.40;;;;;;5072679;28;20258;-71
2022/08/28 08:04:40;;;;;;;14.45;4.75;;;19.40;93.30;;;;;;5071485;28;20033;-71
2022/08/28 08:07:07;;;;;;;18.05;4.88;;;19.40;93.40;;;;;;5063919;28;20039;-71
2022/08/28 08:09:40;;;;;;;14.35;4.57;;;19.40;93.20;;;;;;5062922;28;20416;-71
2022/08/28 08:12:06;;;;;;;12.57;4.95;;;19.40;93.10;;;;;;5065931;28;20119;-71
2022/08/28 08:14:32;;;;;;;8.52;4.07;;;19.40;93.20;;;;;;5077693;28;20055;-71
2022/08/28 08:17:01;;;;;;;13.88;5.20;;;19.30;93.30;;;;;;5073004;28;20075;-71
2022/08/28 08:19:27;;;;;;;14.13;5.22;;;19.40;93.30;;;;;;5070828;28;20430;-71
2022/08/28 08:21:53;;;;;;;11.95;4.90;;;19.40;93.20;;;;;;5066685;28;20794;-71
2022/08/28 08:24:21;;;;;;;15.10;5.30;;;19.40;93.30;;;;;;5074045;28;20039;-71
2022/08/28 08:26:48;;;;;;;9.77;4.47;;;19.50;93.30;;;;;;5063592;28;20625;-71
2022/08/28 08:29:14;;;;;;;16.65;5.07;;;19.50;93.40;;;;;;5073419;28;20032;-71
2022/08/28 08:31:40;;;;;;;11.38;4.60;;;19.50;93.30;;;;;;5077713;28;20016;-72
2022/08/28 08:34:06;;;;;;;18.52;5.03;;;19.50;92.80;;;;;;5070946;28;20021;-71
2022/08/28 08:36:33;;;;;;;18.65;5.10;;;19.50;93.00;;;;;;5071013;28;20047;-71
2022/08/28 08:39:00;;;;;;;10.32;4.80;;;19.50;92.90;;;;;;5068839;28;20036;-72
2022/08/28 08:41:33;;;;;;;11.20;4.30;;;19.60;93.00;;;;;;5066076;28;20051;-72
2022/08/28 08:44:05;;;;;;;14.88;5.63;;;19.50;92.80;;;;;;5064641;28;20033;-71
2022/08/28 08:46:51;;;;;;;12.45;4.78;;;19.60;92.90;;;;;;5063615;28;20027;-71
2022/08/28 08:49:20;;;;;;;14.70;4.85;;;19.60;92.70;;;;;;5068833;28;20031;-72
2022/08/28 08:51:53;;;;;;;13.15;4.70;;;19.60;92.90;;;;;;5070800;28;20032;-71
2022/08/28 08:54:20;;;;;;;11.85;4.60;;;19.60;93.10;;;;;;5071405;28;20415;-71
2022/08/28 08:56:46;;;;;;;17.63;5.70;;;19.70;93.30;;;;;;5067608;28;20114;-71
2022/08/28 08:59:22;;;;;;;8.93;4.95;;;19.70;93.00;;;;;;5067230;28;20131;-72
2022/08/28 09:02:07;;;;;;;17.23;4.90;;;19.80;92.90;;;;;;5065071;28;20845;-72
2022/08/28 09:04:51;;;;;;;12.07;4.78;;;19.70;92.70;;;;;;5070870;28;20496;-72
2022/08/28 09:07:26;;;;;;;13.02;5.10;;;19.70;92.00;;;;;;5064530;28;20036;-72
2022/08/28 09:09:54;;;;;;;12.20;4.47;;;19.70;92.10;;;;;;5070729;28;20873;-72
2022/08/28 09:12:28;;;;;;;13.27;4.82;;;19.80;92.10;;;;;;5070315;28;20032;-71
2022/08/28 09:15:16;;;;;;;9.43;4.28;;;19.90;92.30;;;;;;5073595;28;20123;-71
2022/08/28 09:17:51;;;;;;;9.57;4.72;;;19.90;92.40;;;;;;5066334;28;20032;-72
2022/08/28 09:20:27;;;;;;;13.40;4.38;;;20.00;92.10;;;;;;5065942;28;20036;-72
2022/08/28 09:22:53;;;;;;;9.52;4.60;;;20.10;92.10;;;;;;5066550;28;20566;-72
2022/08/28 09:25:43;;;;;;;18.85;5.03;;;20.20;91.80;;;;;;5062552;28;20033;-72
2022/08/28 09:28:21;;;;;;;16.65;4.88;;;20.30;91.50;;;;;;5070161;28;20107;-72
2022/08/28 09:31:00;;;;;;;14.27;4.35;;;20.40;91.80;;;;;;5073768;28;20028;-72
2022/08/28 09:33:44;;;;;;;12.90;4.32;;;20.30;91.60;;;;;;5069249;28;20400;-72
2022/08/28 09:36:32;;;;;;;12.98;5.10;;;20.30;91.40;;;;;;5073804;28;20677;-71
2022/08/28 09:39:12;;;;;;;9.25;4.28;;;20.40;91.60;;;;;;5072199;28;20046;-72
2022/08/28 09:44:51;;;;;;;16.45;5.05;;;20.40;91.70;;;;;;5065441;28;20040;-72
2022/08/28 09:47:59;;;;;;;14.00;4.90;;;20.40;91.40;;;;;;5070592;28;20405;-71
2022/08/28 09:50:41;;;;;;;9.15;4.63;;;20.40;91.20;;;;;;5057366;28;20024;-72
2022/08/28 09:53:10;;;;;;;12.70;5.20;;;20.40;91.20;;;;;;5065957;28;20044;-72
2022/08/28 09:56:17;;;;;;;12.70;4.82;;;20.40;91.50;;;;;;5077801;28;20042;-71
2022/08/28 09:58:49;;;;;;;16.05;4.97;;;20.40;91.30;;;;;;5052419;28;20067;-71
2022/08/28 10:01:53;;;;;;;10.43;4.60;;;20.40;91.40;;;;;;5072962;28;20055;-71
2022/08/28 10:04:44;;;;;;;10.88;4.35;;;20.40;91.50;;;;;;5059213;28;20048;-72
2022/08/28 10:07:29;;;;;;;9.77;4.68;;;20.40;91.40;;;;;;5074642;28;20659;-72
2022/08/28 10:10:02;;;;;;;16.27;5.00;;;20.40;91.20;;;;;;5072595;28;20476;-72
2022/08/28 10:12:53;;;;;;;11.27;5.95;;;20.30;91.40;;;;;;5067998;28;20021;-72
2022/08/28 10:15:37;;;;;;;18.52;4.97;;;20.30;91.30;;;;;;5066207;28;20048;-71
2022/08/28 10:18:21;;;;;;;16.90;5.80;;;20.30;91.00;;;;;;5073848;28;20040;-72
2022/08/28 10:20:53;;;;;;;13.68;4.65;;;20.30;91.50;;;;;;5077872;28;20051;-71
2022/08/28 10:23:28;;;;;;;12.68;5.20;;;20.30;91.30;;;;;;5075816;28;20082;-71
2022/08/28 10:26:32;;;;;;;14.90;5.13;;;20.20;91.50;;;;;;5078093;28;20035;-71
2022/08/28 10:29:16;;;;;;;14.35;4.90;;;20.20;91.70;;;;;;5076328;28;20032;-72
2022/08/28 10:31:49;;;;;;;15.00;6.05;;;20.20;91.70;;;;;;5069271;28;20033;-71
2022/08/28 10:34:41;;;;;;;16.17;4.88;;;20.20;91.60;;;;;;5071405;28;20495;-71
2022/08/28 10:37:37;;;;;;;11.98;5.18;;;20.20;91.60;;;;;;5074235;28;20067;-72
2022/08/28 10:40:12;;;;;;;11.82;5.03;;;20.20;91.80;;;;;;5074838;28;20443;-72
2022/08/28 10:42:45;;;;;;;12.20;4.43;;;20.30;91.60;;;;;;5079175;28;20032;-71
2022/08/28 10:45:24;;;;;;;14.35;5.05;;;20.20;91.60;;;;;;5072068;28;20500;-72
2022/08/28 10:47:58;;;;;;;14.55;5.07;;;20.30;91.60;;;;;;5070848;28;20032;-72
2022/08/28 10:50:36;;;;;;;16.77;5.50;;;20.30;91.80;;;;;;5071671;28;20404;-71
2022/08/28 10:53:16;;;;;;;10.98;5.40;;;20.30;91.40;;;;;;5067516;28;20127;-72
2022/08/28 10:56:05;;;;;;;12.70;5.60;;;20.30;91.70;;;;;;5065628;28;20141;-72
2022/08/28 10:58:36;;;;;;;14.23;5.05;;;20.30;91.60;;;;;;5068909;28;20039;-71
2022/08/28 11:01:22;;;;;;;19.42;5.03;;;20.40;91.60;;;;;;5068020;28;20059;-72
2022/08/28 11:03:49;;;;;;;;;;;20.40;91.60;;;;;;5071001;28;20028;-72
2022/08/28 11:06:32;;;;;;;17.50;5.70;;;20.50;91.30;;;;;;5075715;28;19946;-71
2022/08/28 11:09:23;;;;;;;16.38;5.78;;;20.60;91.30;;;;;;5068450;28;20032;-71
2022/08/28 11:11:51;;;;;;;17.75;5.88;;;20.60;91.30;;;;;;5066331;28;20081;-71
2022/08/28 11:14:41;;;;;;;9.82;4.85;;;20.60;91.20;;;;;;5067292;28;20037;-72
2022/08/28 11:17:26;;;;;;;14.32;4.93;;;20.60;91.20;;;;;;5072417;28;20381;-72
2022/08/28 11:20:14;;;;;;;17.73;5.35;;;20.70;91.30;;;;;;5067415;28;20146;-71
2022/08/28 11:22:51;;;;;;;13.02;4.68;;;20.80;91.50;;;;;;5074811;28;20468;-72
2022/08/28 11:25:23;;;;;;;14.18;5.25;;;20.90;91.30;;;;;;5071814;28;20033;-72
2022/08/28 11:28:33;;;;;;;13.15;4.72;;;20.90;91.10;;;;;;5077856;28;20029;-72
2022/08/28 11:31:05;;;;;;;13.48;4.65;;;21.00;90.50;;;;;;5038196;28;20029;-71
2022/08/28 11:33:47;;;;;;;12.88;4.60;;;21.20;90.10;;;;;;5034130;28;20789;-71
2022/08/28 11:36:18;;;;;;;15.65;5.28;;;21.30;89.90;;;;;;5063438;28;20051;-71
2022/08/28 11:38:45;;;;;;;10.05;4.45;;;21.30;89.60;;;;;;5071048;28;20032;-71
2022/08/28 11:41:37;;;;;;;7.18;3.78;;;21.40;90.00;;;;;;5070981;28;20498;-71
2022/08/28 11:44:09;;;;;;;8.50;3.95;;;21.50;90.10;;;;;;5070299;28;20053;-71
2022/08/28 11:46:46;;;;;;;13.38;3.85;;;21.60;89.80;;;;;;5074730;28;20024;-71
2022/08/28 11:49:30;;;;;;;12.73;4.25;;;21.60;89.30;;;;;;5069826;28;20029;-71
2022/08/28 11:51:56;;;;;;;6.95;4.00;;;21.60;89.00;;;;;;5064978;28;20040;-71
2022/08/28 11:54:47;;;;;;;10.60;3.90;;;21.70;88.70;;;;;;5062912;28;20021;-71
2022/08/28 11:57:16;;;;;;;8.88;4.40;;;21.70;89.00;;;;;;5072564;28;20577;-71
2022/08/28 12:00:07;;;;;;;12.73;3.97;;;21.70;88.50;;;;;;5076880;28;20032;-71
2022/08/28 12:02:39;;;;;;;11.20;3.83;;;21.80;88.30;;;;;;5072278;28;20119;-72
2022/08/28 12:05:05;;;;;;;8.63;3.20;;;21.80;87.80;;;;;;5078195;28;20761;-72
2022/08/28 12:07:50;;;;;;;9.43;3.50;;;21.90;87.70;;;;;;5067674;28;20032;-72
2022/08/28 12:10:19;;;;;;;9.55;3.63;;;21.90;87.40;;;;;;5075742;28;20199;-72
2022/08/28 12:12:45;;;;;;;9.23;3.17;;;22.00;87.30;;;;;;5074115;28;20020;-71
2022/08/28 12:15:32;;;;;;;11.07;3.83;;;22.00;87.40;;;;;;5072573;28;20392;-71
2022/08/28 12:18:35;;;;;;;9.23;3.30;;;22.10;86.80;;;;;;5073159;28;20125;-71
2022/08/28 12:21:11;;;;;;;7.90;3.38;;;22.10;87.20;;;;;;5068986;28;20032;-71
2022/08/28 12:23:40;;;;;;;8.75;3.45;;;22.10;86.80;;;;;;5074660;28;20089;-72
2022/08/28 12:26:08;;;;;;;8.68;3.10;;;22.10;86.70;;;;;;5068912;28;20081;-71
2022/08/28 12:28:52;;;;;;;10.07;3.03;;;22.10;86.60;;;;;;5077530;28;20040;-72
2022/08/28 12:34:56;;;;;;;12.70;3.60;;;22.10;85.70;;;;;;5065951;28;20085;-71
2022/08/28 12:37:41;;;;;;;8.90;2.78;;;22.30;87.60;;;;;;5071090;28;20555;-72
2022/08/28 12:40:21;;;;;;;16.13;3.88;;;22.40;85.90;;;;;;5067906;28;20135;-71
2022/08/28 12:42:57;;;;;;;9.38;3.03;;;22.50;86.50;;;;;;5073366;28;20047;-71
2022/08/28 12:45:46;;;;;;;9.65;3.08;;;22.50;84.60;;;;;;5068006;28;20141;-71
2022/08/28 12:48:26;;;;;;;9.23;2.85;;;22.50;84.40;;;;;;5050874;28;20040;-71
2022/08/28 12:51:19;;;;;;;10.60;3.20;;;22.40;84.60;;;;;;5073108;28;20031;-71
2022/08/28 12:53:47;;;;;;;9.38;3.38;;;22.50;85.30;;;;;;5063755;28;20032;-71
2022/08/28 12:56:16;;;;;;;9.02;3.00;;;22.40;85.00;;;;;;5077967;28;20032;-71
2022/08/28 12:58:44;;;;;;;7.57;2.80;;;22.40;84.40;;;;;;5071343;28;20024;-71
2022/08/28 13:01:15;;;;;;;11.55;2.95;;;22.40;84.40;;;;;;5068604;28;20042;-71
2022/08/28 13:04:05;;;;;;;15.27;3.50;;;22.40;84.70;;;;;;5069093;28;20035;-71
2022/08/28 13:06:35;;;;;;;8.98;3.17;;;22.40;85.30;;;;;;5071007;28;20120;-71
2022/08/28 13:09:00;;;;;;;6.45;2.75;;;22.40;85.80;;;;;;5064386;28;20071;-71